Aviation Digital Data Service (ADDS)

Output produced by METARs form (0522 UTC 16 December 2017)
found at http://www.aviationweather.gov/adds/metars/
 
METAR text: KMYF 160453Z 00000KT 10SM CLR 15/M08 A2999 RMK AO2 SLP151 T01501078
Conditions at: KMYF (SAN DIEGO/MNTGMY, CA, US) observed 0453 UTC 16 December 2017
Temperature: 15.0°C (59°F)
Dewpoint: -7.8°C (18°F) [RH = 20%]
Pressure (altimeter): 29.99 inches Hg (1015.7 mb)
[Sea-level pressure: 1015.1 mb]
Winds: calm
Visibility: 10 or more miles (16+ km)
Ceiling: at least 12,000 feet AGL
Clouds: sky clear below 12,000 feet AGL
Weather: no significant weather observed at this time

METAR text: KMYF 160353Z 00000KT 10SM CLR 16/M07 A3000 RMK AO2 SLP155 T01611067
Conditions at: KMYF (SAN DIEGO/MNTGMY, CA, US) observed 0353 UTC 16 December 2017
Temperature: 16.1°C (61°F)
Dewpoint: -6.7°C (20°F) [RH = 20%]
Pressure (altimeter): 30.00 inches Hg (1016.0 mb)
[Sea-level pressure: 1015.5 mb]
Winds: calm
Visibility: 10 or more miles (16+ km)
Ceiling: at least 12,000 feet AGL
Clouds: sky clear below 12,000 feet AGL
Weather: no significant weather observed at this time

METAR text: KMYF 160253Z 06003KT 10SM CLR 16/M06 A3000 RMK AO2 SLP154 T01611061 58004
Conditions at: KMYF (SAN DIEGO/MNTGMY, CA, US) observed 0253 UTC 16 December 2017
Temperature: 16.1°C (61°F)
Dewpoint: -6.1°C (21°F) [RH = 21%]
Pressure (altimeter): 30.00 inches Hg (1016.0 mb)
[Sea-level pressure: 1015.4 mb]
Winds: from the ENE (60 degrees) at 3 MPH (3 knots; 1.6 m/s)
Visibility: 10 or more miles (16+ km)
Ceiling: at least 12,000 feet AGL
Clouds: sky clear below 12,000 feet AGL
Weather: no significant weather observed at this time

METAR text: KMYF 160153Z 35006KT 10SM CLR 21/M06 A3001 RMK AO2 SLP158 T02061061
Conditions at: KMYF (SAN DIEGO/MNTGMY, CA, US) observed 0153 UTC 16 December 2017
Temperature: 20.6°C (69°F)
Dewpoint: -6.1°C (21°F) [RH = 16%]
Pressure (altimeter): 30.01 inches Hg (1016.3 mb)
[Sea-level pressure: 1015.8 mb]
Winds: from the N (350 degrees) at 7 MPH (6 knots; 3.1 m/s)
Visibility: 10 or more miles (16+ km)
Ceiling: at least 12,000 feet AGL
Clouds: sky clear below 12,000 feet AGL
Weather: no significant weather observed at this time

METAR text: KMYF 160053Z 32007KT 10SM CLR 22/M06 A3001 RMK AO2 SLP157 T02171061
Conditions at: KMYF (SAN DIEGO/MNTGMY, CA, US) observed 0053 UTC 16 December 2017
Temperature: 21.7°C (71°F)
Dewpoint: -6.1°C (21°F) [RH = 15%]
Pressure (altimeter): 30.01 inches Hg (1016.3 mb)
[Sea-level pressure: 1015.7 mb]
Winds: from the NW (320 degrees) at 8 MPH (7 knots; 3.6 m/s)
Visibility: 10 or more miles (16+ km)
Ceiling: at least 12,000 feet AGL
Clouds: sky clear below 12,000 feet AGL
Weather: no significant weather observed at this time

METAR text: KMYF 152353Z 33007KT 10SM CLR 25/M09 A3001 RMK AO2 SLP158 T02501094 10278 20250 56017
Conditions at: KMYF (SAN DIEGO/MNTGMY, CA, US) observed 2353 UTC 15 December 2017
Temperature: 25.0°C (77°F)
Dewpoint: -9.4°C (15°F) [RH = 9%]
Pressure (altimeter): 30.01 inches Hg (1016.3 mb)
[Sea-level pressure: 1015.8 mb]
Winds: from the NNW (330 degrees) at 8 MPH (7 knots; 3.6 m/s)
Visibility: 10 or more miles (16+ km)
Ceiling: at least 12,000 feet AGL
Clouds: sky clear below 12,000 feet AGL
Weather: no significant weather observed at this time

METAR text: KMYF 152253Z 30005KT 10SM CLR 27/M12 A3002 RMK AO2 SLP163 T02671117
Conditions at: KMYF (SAN DIEGO/MNTGMY, CA, US) observed 2253 UTC 15 December 2017
Temperature: 26.7°C (80°F)
Dewpoint: -11.7°C (11°F) [RH = 7%]
Pressure (altimeter): 30.02 inches Hg (1016.7 mb)
[Sea-level pressure: 1016.3 mb]
Winds: from the WNW (300 degrees) at 6 MPH (5 knots; 2.6 m/s)
Visibility: 10 or more miles (16+ km)
Ceiling: at least 12,000 feet AGL
Clouds: sky clear below 12,000 feet AGL
Weather: no significant weather observed at this time

METAR text: KMYF 152153Z 30008KT 10SM CLR 27/M12 A3004 RMK AO2 SLP169 T02671122
Conditions at: KMYF (SAN DIEGO/MNTGMY, CA, US) observed 2153 UTC 15 December 2017
Temperature: 26.7°C (80°F)
Dewpoint: -12.2°C (10°F) [RH = 7%]
Pressure (altimeter): 30.04 inches Hg (1017.4 mb)
[Sea-level pressure: 1016.9 mb]
Winds: from the WNW (300 degrees) at 9 MPH (8 knots; 4.2 m/s)
Visibility: 10 or more miles (16+ km)
Ceiling: at least 12,000 feet AGL
Clouds: sky clear below 12,000 feet AGL
Weather: no significant weather observed at this time